Preview of NWS' New Version of Forecast
This preview is not operational and should not be used for support decisions.

Terminal Aerodrome Forecast (TAF)

Issued by National Weather Service (NWS)

                            
000
FTUS46 KMTR 201730
TAFSTS
TAF
KSTS 201730Z 2018/2118 32004KT P6SM SKC
     FM202100 21008KT P6SM SKC
     FM210400 VRB03KT P6SM SKC=